createdAt,value
2019-05-22T00:02:25.578Z,96536.91
2019-05-22T00:05:10.717Z,96535.14
2019-05-22T00:07:37.925Z,96535.77
2019-05-22T00:10:07.173Z,96532.99
2019-05-22T00:12:46.300Z,96536.27
2019-05-22T00:15:04.362Z,96540.19
2019-05-22T00:17:31.657Z,96540.04
2019-05-22T00:19:58.677Z,96538.78
2019-05-22T00:22:26.680Z,96538.88
2019-05-22T00:24:53.903Z,96540.31
2019-05-22T00:27:21.628Z,96542.12
2019-05-22T00:29:47.774Z,96545.89
2019-05-22T00:32:15.489Z,96544.58
2019-05-22T00:34:42.430Z,96544.27
2019-05-22T00:37:08.618Z,96543.64
2019-05-22T00:39:36.567Z,96540.45
2019-05-22T00:42:02.785Z,96539.33
2019-05-22T00:44:28.784Z,96542.66
2019-05-22T00:46:55.005Z,96544.12
2019-05-22T00:49:21.720Z,96543.02
2019-05-22T00:51:56.250Z,96539.88
2019-05-22T00:54:24.224Z,96543.42
2019-05-22T00:56:53.011Z,96545.27
2019-05-22T00:59:23.422Z,96546.61
2019-05-22T01:01:54.926Z,96547.69
2019-05-22T01:04:39.503Z,96547.45
2019-05-22T01:07:11.407Z,96555.64
2019-05-22T01:09:43.840Z,96549.75
2019-05-22T03:07:10.024Z,96563.02
2019-05-22T03:09:39.917Z,96566.61
2019-05-22T03:12:07.728Z,96564.95
2019-05-22T03:14:35.049Z,96568.45
2019-05-22T03:17:03.835Z,96559.11
2019-05-22T03:19:40.964Z,96562.47
2019-05-22T03:22:18.207Z,96567.41
2019-05-22T03:24:44.075Z,96573.41
2019-05-22T03:27:11.220Z,96574.89
2019-05-22T03:29:40.835Z,96575.83
2019-05-22T03:32:07.242Z,96575.88
2019-05-22T03:34:34.635Z,96576.32
2019-05-22T03:37:01.311Z,96559.47
2019-05-22T03:39:27.195Z,96584.20
2019-05-22T03:41:53.034Z,96577.80
2019-05-22T03:44:18.795Z,96577.80
2019-05-22T03:46:45.603Z,96584.83
2019-05-22T03:49:29.383Z,96580.92
2019-05-22T03:51:45.364Z,96584.41
2019-05-22T03:54:12.082Z,96566.42
2019-05-22T03:56:39.402Z,96584.59
2019-05-22T03:59:05.864Z,96589.23
2019-05-22T04:01:32.781Z,96593.86
2019-05-22T04:03:59.360Z,96587.88
2019-05-22T04:06:25.525Z,96593.24
2019-05-22T04:08:51.546Z,96591.39
2019-05-22T04:11:18.224Z,96588.78
2019-05-22T04:13:44.017Z,96589.46
2019-05-22T04:16:12.111Z,96592.74
2019-05-22T04:18:38.420Z,96591.53
2019-05-22T04:21:04.451Z,96596.92
2019-05-22T04:23:30.337Z,96596.70
2019-05-22T04:25:56.123Z,96598.55
2019-05-22T04:28:23.276Z,96596.88
2019-05-22T04:30:49.926Z,96602.86
2019-05-22T04:33:16.799Z,96600.30
2019-05-22T04:35:42.587Z,96599.89
2019-05-22T04:38:09.705Z,96611.59
2019-05-22T04:40:42.779Z,96612.89
2019-05-22T04:43:10.401Z,96619.01
2019-05-22T04:45:36.212Z,96621.03
2019-05-22T04:48:02.922Z,96618.78
2019-05-22T04:50:29.865Z,96616.08
2019-05-22T04:52:56.073Z,96622.02
2019-05-22T04:55:23.473Z,96620.98
2019-05-22T04:57:49.376Z,96627.02
2019-05-22T05:00:16.001Z,96629.85
2019-05-22T05:02:42.120Z,96629.12
2019-05-22T05:05:10.235Z,96632.50
2019-05-22T05:07:37.424Z,96637.55
2019-05-22T05:10:04.730Z,96637.31
2019-05-22T05:12:30.564Z,96645.37
2019-05-22T05:14:56.988Z,96642.25
2019-05-22T05:17:23.327Z,96642.97
2019-05-22T05:19:49.357Z,96647.47
2019-05-22T05:22:17.785Z,96649.75
2019-05-22T05:24:43.591Z,96652.87
2019-05-22T05:27:10.346Z,96656.07
2019-05-22T05:29:36.123Z,96653.28
2019-05-22T05:32:02.156Z,96660.03
2019-05-22T05:34:35.355Z,96655.77
2019-05-22T05:37:01.775Z,96649.78
2019-05-22T05:39:39.659Z,96649.09
2019-05-22T05:42:05.831Z,96647.21
2019-05-22T05:44:33.037Z,96656.30
2019-05-22T05:46:59.162Z,96660.16
2019-05-22T05:49:26.117Z,96665.30
2019-05-22T05:51:52.534Z,96669.52
2019-05-22T05:54:18.350Z,96664.78
2019-05-22T05:56:44.657Z,96671.18
2019-05-22T05:59:11.855Z,96672.79
2019-05-22T06:01:39.765Z,96676.30
2019-05-22T06:04:05.686Z,96678.61
2019-05-22T06:06:35.470Z,96678.52
2019-05-22T06:09:03.182Z,96679.81
2019-05-22T06:11:32.806Z,96682.61
2019-05-22T06:14:00.220Z,96678.30
2019-05-22T06:16:49.423Z,96684.15
2019-05-22T06:19:15.788Z,96675.02
2019-05-22T06:21:46.573Z,96676.81
2019-05-22T06:24:19.299Z,96678.26
2019-05-22T06:26:49.157Z,96678.85
2019-05-22T06:29:15.328Z,96680.91
2019-05-22T06:32:03.790Z,96682.48
2019-05-22T06:34:29.876Z,96684.20
2019-05-22T06:36:59.508Z,96683.69
2019-05-22T06:39:25.349Z,96692.97
2019-05-22T06:41:51.410Z,96690.48
2019-05-22T06:44:26.648Z,96689.27
2019-05-22T06:46:52.449Z,96695.33
2019-05-22T06:49:34.348Z,96692.14
2019-05-22T06:52:01.547Z,96693.08
2019-05-22T06:54:27.743Z,96690.55
2019-05-22T06:56:53.542Z,96691.44
2019-05-22T06:59:19.411Z,96686.44
2019-05-22T07:04:09.914Z,96688.01
2019-05-22T07:06:36.046Z,96702.80
2019-05-22T07:09:03.121Z,96700.81
2019-05-22T07:11:29.324Z,96704.09
2019-05-22T07:13:55.607Z,96711.31
2019-05-22T07:16:21.420Z,96718.11
2019-05-22T07:18:47.230Z,96715.99
2019-05-22T07:21:13.264Z,96710.14
2019-05-22T07:23:39.127Z,96720.09
2019-05-22T07:26:05.233Z,96715.10
2019-05-22T07:28:31.420Z,96719.77
2019-05-22T07:30:57.850Z,96712.71
2019-05-22T07:33:23.759Z,96715.34
2019-05-22T07:36:08.625Z,96717.86
2019-05-22T07:38:19.566Z,96720.45
2019-05-22T07:40:49.883Z,96713.66
2019-05-22T07:43:14.385Z,96720.19
2019-05-22T07:45:40.637Z,96719.98
2019-05-22T07:48:07.242Z,96721.63
2019-05-22T07:50:35.292Z,96726.20
2019-05-22T07:53:01.797Z,96720.74
2019-05-22T07:55:30.217Z,96718.42
2019-05-22T07:58:02.985Z,96724.47
2019-05-22T08:00:29.319Z,96727.72
2019-05-22T08:02:55.213Z,96555.47
2019-05-22T08:05:26.996Z,96733.86
2019-05-22T08:07:53.097Z,96725.55
2019-05-22T08:10:20.384Z,96726.65
2019-05-22T08:12:47.233Z,96733.52
2019-05-22T08:15:13.499Z,96741.03
2019-05-22T08:17:39.873Z,96734.83
2019-05-22T08:20:05.902Z,96740.22
2019-05-22T08:22:32.244Z,96741.33
2019-05-22T08:24:58.198Z,96736.23
2019-05-22T08:27:23.970Z,96744.22
2019-05-22T08:29:50.058Z,96745.53
2019-05-22T08:32:17.020Z,96748.95
2019-05-22T08:34:43.361Z,96751.30
2019-05-22T08:37:12.990Z,96754.87
2019-05-22T08:39:39.388Z,96755.33
2019-05-22T08:42:06.471Z,96758.77
2019-05-22T08:44:33.107Z,96756.09
2019-05-22T08:46:59.609Z,96757.75
2019-05-22T08:49:25.536Z,96750.50
2019-05-22T08:51:51.758Z,96755.44
2019-05-22T08:54:18.148Z,96747.83
2019-05-22T08:56:47.772Z,96743.81
2019-05-22T08:59:19.627Z,96746.19
2019-05-22T09:01:41.648Z,96746.05
2019-05-22T09:04:08.131Z,96744.98
2019-05-22T09:06:34.026Z,96711.11
2019-05-22T09:08:59.838Z,96751.55
2019-05-22T09:11:25.724Z,96750.11
2019-05-22T09:13:51.788Z,96752.88
2019-05-22T09:16:19.655Z,96753.81
2019-05-22T09:18:45.650Z,96746.87
2019-05-22T09:21:11.638Z,96743.44
2019-05-22T09:23:38.136Z,96748.23
2019-05-22T09:26:05.027Z,96750.28
2019-05-22T09:28:30.929Z,96756.80
2019-05-22T09:30:56.762Z,96760.84
2019-05-22T09:33:23.422Z,96756.25
2019-05-22T09:35:49.212Z,96760.09
2019-05-22T09:38:15.124Z,96774.94
2019-05-22T09:40:41.049Z,96762.69
2019-05-22T09:43:07.073Z,96785.89
2019-05-22T09:45:37.769Z,96769.94
2019-05-22T09:48:04.270Z,96775.09
2019-05-22T09:50:30.302Z,96769.84
2019-05-22T09:52:58.297Z,96773.89
2019-05-22T09:55:24.403Z,96765.05
2019-05-22T09:57:50.417Z,96765.27
2019-05-22T10:00:17.755Z,96765.38
2019-05-22T10:02:43.963Z,96771.53
2019-05-22T10:05:10.297Z,96771.34
2019-05-22T10:07:57.108Z,96770.55
2019-05-22T10:10:08.073Z,96809.80
2019-05-22T10:12:34.222Z,96768.88
2019-05-22T10:15:01.485Z,96771.19
2019-05-22T10:17:28.422Z,96771.75
2019-05-22T10:19:54.606Z,96774.21
2019-05-22T10:22:27.523Z,96777.02
2019-05-22T10:25:12.118Z,96777.02
2019-05-22T10:27:21.376Z,96774.03
2019-05-22T10:29:47.262Z,96769.27
2019-05-22T10:32:13.264Z,96777.17
2019-05-22T10:34:39.159Z,96769.23
2019-05-22T10:37:06.423Z,96774.69
2019-05-22T10:39:33.539Z,96767.84
2019-05-22T10:41:59.673Z,96769.48
2019-05-22T10:44:25.693Z,96769.48
2019-05-22T10:46:51.475Z,96767.97
2019-05-22T10:49:17.494Z,96777.82
2019-05-22T10:51:43.361Z,96777.13
2019-05-22T10:54:12.043Z,96777.30
2019-05-22T10:56:37.962Z,96391.92
2019-05-22T10:59:08.424Z,96779.41
2019-05-22T11:01:37.562Z,96771.23
2019-05-22T11:04:03.459Z,96770.31
2019-05-22T11:06:29.731Z,96771.12
2019-05-22T11:08:55.899Z,96764.27
2019-05-22T11:11:22.369Z,96764.27
2019-05-22T11:14:00.569Z,96758.91
2019-05-22T11:16:16.679Z,96760.70
2019-05-22T11:18:43.021Z,96759.33
2019-05-22T11:21:10.566Z,96757.04
2019-05-22T11:23:50.346Z,96757.04
2019-05-22T11:26:04.281Z,96769.50
2019-05-22T11:28:30.832Z,96769.50
2019-05-22T11:31:00.009Z,96762.28
2019-05-22T11:33:26.024Z,96763.97
2019-05-22T11:35:52.220Z,96773.56
2019-05-22T11:38:18.336Z,96762.93
2019-05-22T11:40:44.136Z,96767.48
2019-05-22T11:43:12.420Z,96766.34
2019-05-22T11:45:38.254Z,96737.48
2019-05-22T11:48:04.552Z,96768.14
2019-05-22T11:50:32.515Z,96765.50
2019-05-22T11:52:58.418Z,96763.62
2019-05-22T11:55:42.168Z,96762.16
2019-05-22T11:57:54.793Z,96760.83
2019-05-22T12:00:22.089Z,96766.01
2019-05-22T12:02:48.868Z,96765.45
2019-05-22T12:05:15.401Z,96767.16
2019-05-22T12:07:44.627Z,96763.23
2019-05-22T12:10:12.658Z,96770.96
2019-05-22T12:12:39.700Z,96767.48
2019-05-22T12:15:07.742Z,96773.36
2019-05-22T12:17:38.228Z,96774.70
2019-05-22T12:20:04.953Z,96775.23
2019-05-22T12:22:30.827Z,96771.21
2019-05-22T12:24:56.636Z,96778.70
2019-05-22T12:27:22.834Z,96775.09
2019-05-22T12:29:49.245Z,96778.30
2019-05-22T12:32:15.369Z,96777.23
2019-05-22T12:34:41.486Z,96768.92
2019-05-22T12:37:08.470Z,96768.48
2019-05-22T12:39:36.954Z,96765.73
2019-05-22T12:42:03.459Z,96759.33
2019-05-22T12:44:29.486Z,96760.84
2019-05-22T12:46:55.407Z,96770.13
2019-05-22T12:49:25.694Z,96774.75
2019-05-22T12:51:51.506Z,96770.93
2019-05-22T12:54:17.394Z,96772.64
2019-05-22T12:56:44.507Z,96705.09
2019-05-22T12:59:11.941Z,96769.09
2019-05-22T13:01:38.246Z,96764.02
2019-05-22T13:04:05.232Z,96767.53
2019-05-22T13:06:32.809Z,96766.22
2019-05-22T13:08:58.710Z,96762.31
2019-05-22T13:11:24.477Z,96761.27
2019-05-22T13:13:50.379Z,96762.24
2019-05-22T13:16:19.500Z,96757.62
2019-05-22T13:18:46.012Z,96782.06
2019-05-22T13:21:17.850Z,96764.83
2019-05-22T13:23:43.960Z,96406.98
2019-05-22T13:26:09.833Z,96769.72
2019-05-22T13:28:37.857Z,96768.72
2019-05-22T13:31:05.242Z,96770.75
2019-05-22T13:33:34.774Z,96769.08
2019-05-22T13:36:00.651Z,96767.79
2019-05-22T13:38:26.756Z,96765.91
2019-05-22T13:40:53.490Z,96762.25
2019-05-22T13:43:19.292Z,96768.28
2019-05-22T13:45:45.484Z,96767.28
2019-05-22T13:48:11.576Z,96765.86
2019-05-22T13:50:37.831Z,96767.08
2019-05-22T13:53:08.157Z,96769.47
2019-05-22T13:55:35.027Z,96768.31
2019-05-22T13:58:02.136Z,96764.97
2019-05-22T14:00:28.407Z,96768.21
2019-05-22T14:02:54.361Z,96772.88
2019-05-22T14:05:20.519Z,96769.41
2019-05-22T14:07:46.389Z,96764.52
2019-05-22T14:10:12.494Z,96764.69
2019-05-22T14:12:38.704Z,96758.55
2019-05-22T14:15:07.830Z,96761.69
2019-05-22T14:17:34.057Z,96760.47
2019-05-22T14:19:59.982Z,96748.17
2019-05-22T14:22:26.135Z,96757.03
2019-05-22T14:24:55.216Z,96758.66
2019-05-22T14:27:21.036Z,96779.14
2019-05-22T14:29:50.132Z,96762.03
2019-05-22T14:32:16.334Z,96768.32
2019-05-22T14:34:44.325Z,96750.44
2019-05-22T14:37:11.482Z,96760.55
2019-05-22T14:39:40.720Z,96754.16
2019-05-22T14:42:07.741Z,96770.41
2019-05-22T14:44:34.436Z,96754.94
2019-05-22T14:47:13.304Z,96753.17
2019-05-22T14:49:28.311Z,96747.42
2019-05-22T14:51:54.289Z,96752.73
2019-05-22T14:54:21.068Z,96752.39
2019-05-22T14:56:47.670Z,96756.03
2019-05-22T14:59:13.489Z,96749.77
2019-05-22T15:01:42.530Z,96747.92
2019-05-22T15:04:08.413Z,96762.03
2019-05-22T15:06:37.548Z,96751.23
2019-05-22T15:09:05.884Z,96758.51
2019-05-22T15:11:31.894Z,96755.66
2019-05-22T15:13:57.980Z,96755.34
2019-05-22T15:16:24.103Z,96757.61
2019-05-22T15:18:50.140Z,96754.27
2019-05-22T15:21:16.583Z,96757.42
2019-05-22T15:23:42.755Z,96756.13
2019-05-22T15:26:08.858Z,96746.25
2019-05-22T15:28:39.026Z,96749.58
2019-05-22T15:31:04.816Z,96763.09
2019-05-22T15:33:31.515Z,96761.77
2019-05-22T15:35:57.961Z,96758.61
2019-05-22T15:38:30.318Z,96754.82
2019-05-22T15:40:56.099Z,96752.00
2019-05-22T15:43:22.981Z,96760.24
2019-05-22T15:45:49.468Z,96759.91
2019-05-22T15:48:18.346Z,96747.75
2019-05-22T15:50:46.305Z,96767.45
2019-05-22T15:53:15.172Z,96768.30
2019-05-22T15:55:42.268Z,96768.55
2019-05-22T15:58:09.219Z,96767.45
2019-05-22T16:00:36.931Z,96760.98
2019-05-22T16:03:09.114Z,96765.95
2019-05-22T16:05:36.407Z,96757.73
2019-05-22T16:08:03.379Z,96757.66
2019-05-22T16:10:29.387Z,96762.63
2019-05-22T16:12:55.488Z,96761.63
2019-05-22T16:15:22.167Z,96755.95
2019-05-22T16:17:48.677Z,96759.08
2019-05-22T16:20:17.941Z,96758.28
2019-05-22T16:22:43.802Z,96759.34
2019-05-22T16:25:10.407Z,96756.80
2019-05-22T16:27:39.626Z,96755.49
2019-05-22T16:30:06.085Z,96756.45
2019-05-22T16:32:32.642Z,96757.90
2019-05-22T16:34:58.528Z,96756.34
2019-05-22T16:37:24.848Z,96758.08
2019-05-22T16:39:50.970Z,96759.08
2019-05-22T16:42:17.031Z,96756.33
2019-05-22T16:44:42.834Z,96760.73
2019-05-22T16:47:09.269Z,96758.64
2019-05-22T16:49:35.397Z,96759.22
2019-05-22T16:52:03.432Z,96751.16
2019-05-22T16:54:30.129Z,96754.73
2019-05-22T16:56:56.046Z,96756.55
2019-05-22T16:59:22.349Z,96757.22
2019-05-22T17:01:59.406Z,96759.86
2019-05-22T17:04:16.676Z,96759.26
2019-05-22T17:06:43.852Z,96697.78
2019-05-22T17:09:12.440Z,96763.66
2019-05-22T17:11:39.311Z,96757.62
2019-05-22T17:14:06.120Z,96755.49
2019-05-22T17:16:34.103Z,96763.56
2019-05-22T17:19:00.824Z,96758.99
2019-05-22T17:21:27.095Z,96755.80
2019-05-22T17:23:53.414Z,96759.50
2019-05-22T17:26:19.398Z,96764.95
2019-05-22T17:28:46.811Z,96758.66
2019-05-22T17:31:14.460Z,96754.89
2019-05-22T17:33:40.505Z,96763.79
2019-05-22T17:36:07.029Z,96764.41
2019-05-22T17:38:33.127Z,96764.58
2019-05-22T17:40:59.882Z,96773.98
2019-05-22T17:43:28.097Z,96773.98
2019-05-22T17:45:54.858Z,96774.59
2019-05-22T17:48:21.176Z,96774.59
2019-05-22T17:50:47.660Z,96763.34
2019-05-22T17:53:14.357Z,96771.55
2019-05-22T17:55:41.796Z,96782.27
2019-05-22T17:58:09.100Z,96782.16
2019-05-22T18:00:37.083Z,96782.16
2019-05-22T18:03:03.819Z,96786.97
2019-05-22T18:05:30.107Z,96786.97
2019-05-22T18:07:56.231Z,96784.00
2019-05-22T18:10:22.385Z,96781.44
2019-05-22T18:12:48.459Z,96768.51
2019-05-22T18:15:17.494Z,96780.88
2019-05-22T18:17:43.600Z,96791.91
2019-05-22T18:20:12.835Z,96794.77
2019-05-22T18:22:39.970Z,96794.77
2019-05-22T18:25:06.066Z,96800.56
2019-05-22T18:27:32.093Z,96805.63
2019-05-22T18:29:58.276Z,96805.63
2019-05-22T18:32:24.225Z,96805.78
2019-05-22T18:34:49.992Z,96803.05
2019-05-22T18:37:18.729Z,96813.09
2019-05-22T18:39:44.780Z,96830.91
2019-05-22T18:42:13.937Z,96813.28
2019-05-22T18:44:40.027Z,96834.21
2019-05-22T18:47:09.636Z,96812.88
2019-05-22T18:49:35.550Z,96825.05
2019-05-22T18:52:01.724Z,96813.50
2019-05-22T18:54:27.521Z,96812.94
2019-05-22T18:56:56.491Z,96817.27
2019-05-22T18:59:22.553Z,96824.18
2019-05-22T19:01:48.554Z,96822.14
2019-05-22T19:04:14.925Z,96827.07
2019-05-22T19:06:41.249Z,96823.27
2019-05-22T19:09:08.958Z,96825.41
2019-05-22T19:11:34.827Z,96831.72
2019-05-22T19:14:03.579Z,96825.89
2019-05-22T19:16:29.715Z,96839.55
2019-05-22T19:18:58.430Z,96834.41
2019-05-22T19:21:24.239Z,96859.17
2019-05-22T19:23:53.185Z,96841.97
2019-05-22T19:26:19.099Z,96857.10
2019-05-22T19:28:48.075Z,96841.81
2019-05-22T19:31:14.136Z,96867.56
2019-05-22T19:33:43.094Z,96844.99
2019-05-22T19:36:09.098Z,96849.77
2019-05-22T19:38:35.081Z,96851.07
2019-05-22T19:41:01.181Z,96859.62
2019-05-22T19:43:27.411Z,96862.41
2019-05-22T19:45:53.338Z,96863.74
2019-05-22T19:48:19.628Z,96865.37
2019-05-22T19:50:48.991Z,96857.53
2019-05-22T19:53:19.250Z,96878.57
2019-05-22T19:55:44.798Z,96869.09
2019-05-22T19:58:11.994Z,96868.37
2019-05-22T20:00:37.818Z,96872.98
2019-05-22T20:03:04.041Z,96878.45
2019-05-22T20:05:34.759Z,96870.59
2019-05-22T20:08:00.566Z,96885.34
2019-05-22T20:10:26.610Z,96767.20
2019-05-22T20:12:52.835Z,96880.84
2019-05-22T20:15:19.049Z,96883.50
2019-05-22T20:17:45.063Z,96884.37
2019-05-22T20:20:12.043Z,96887.16
2019-05-22T20:22:43.342Z,96891.22
2019-05-22T20:25:09.333Z,96886.31
2019-05-22T20:27:35.754Z,96892.75
2019-05-22T20:30:05.153Z,96888.39
2019-05-22T20:32:31.169Z,96887.08
2019-05-22T20:34:57.035Z,96458.09
2019-05-22T20:37:23.067Z,96898.61
2019-05-22T20:39:49.082Z,96891.48
2019-05-22T20:42:17.901Z,96900.63
2019-05-22T20:44:44.567Z,96910.00
2019-05-22T20:47:16.060Z,96895.17
2019-05-22T20:49:43.434Z,96897.12
2019-05-22T20:52:11.144Z,96902.16
2019-05-22T20:54:37.673Z,96903.59
2019-05-22T20:57:05.380Z,96778.17
2019-05-22T20:59:31.286Z,96896.55
2019-05-22T21:01:57.893Z,96896.59
2019-05-22T21:04:24.607Z,96902.29
2019-05-22T21:06:59.750Z,96900.26
2019-05-22T21:09:26.142Z,96899.25
2019-05-22T21:11:52.405Z,96904.07
2019-05-22T21:14:18.763Z,96898.84
2019-05-22T21:16:45.869Z,96897.91
2019-05-22T21:19:13.791Z,96894.57
2019-05-22T21:21:39.965Z,96899.52
2019-05-22T21:24:11.548Z,96901.48
2019-05-22T21:26:34.582Z,96900.39
2019-05-22T21:29:00.779Z,96904.51
2019-05-22T21:31:28.267Z,96905.81
2019-05-22T21:33:54.664Z,96893.98
2019-05-22T21:36:22.868Z,96897.64
2019-05-22T21:38:49.061Z,96895.62
2019-05-22T21:41:15.540Z,96901.78
2019-05-22T21:43:41.356Z,96901.70
2019-05-22T21:46:07.850Z,96899.75
2019-05-22T21:48:33.682Z,96887.08
2019-05-22T21:51:01.153Z,96885.38
2019-05-22T21:53:27.767Z,96881.50
2019-05-22T21:56:04.299Z,96883.25
2019-05-22T21:58:22.112Z,96895.27
2019-05-22T22:00:55.870Z,96893.00
2019-05-22T22:03:28.073Z,96891.33
2019-05-22T22:05:55.198Z,96892.42
2019-05-22T22:08:21.114Z,96886.83
2019-05-22T22:10:47.188Z,96892.89
2019-05-22T22:13:14.013Z,96885.36
2019-05-22T22:15:40.593Z,96885.16
2019-05-22T22:18:06.879Z,96894.64
2019-05-22T22:20:32.974Z,96775.30
2019-05-22T22:22:59.102Z,96896.31
2019-05-22T22:25:25.643Z,96896.86
2019-05-22T22:27:51.651Z,96896.96
2019-05-22T22:30:33.531Z,96897.78
2019-05-22T22:33:04.005Z,96901.51
2019-05-22T22:35:31.088Z,96898.15
2019-05-22T22:37:57.199Z,96900.38
2019-05-22T22:40:24.586Z,96900.92
2019-05-22T22:42:52.311Z,96899.61
2019-05-22T22:45:21.183Z,96903.06
2019-05-22T22:47:47.426Z,96906.70
2019-05-22T22:50:13.735Z,96905.19
2019-05-22T22:52:41.389Z,96908.33
2019-05-22T22:55:10.747Z,96907.56
2019-05-22T22:57:37.669Z,96904.77
2019-05-22T23:00:04.798Z,96901.80
2019-05-22T23:02:32.103Z,96902.99
2019-05-22T23:04:58.261Z,96903.41
2019-05-22T23:07:24.689Z,96904.60
2019-05-22T23:09:51.412Z,96901.49
2019-05-22T23:12:19.524Z,96928.36
2019-05-22T23:14:50.040Z,96909.00
2019-05-22T23:17:15.927Z,96909.33
2019-05-22T23:19:42.324Z,96906.98
2019-05-22T23:22:09.496Z,96905.58
2019-05-22T23:24:37.226Z,96911.27
2019-05-22T23:27:05.203Z,96903.39
2019-05-22T23:29:32.081Z,96905.61
2019-05-22T23:31:58.294Z,96905.61
2019-05-22T23:34:24.428Z,96905.05
2019-05-22T23:36:50.654Z,96900.84
2019-05-22T23:39:17.978Z,96901.10
2019-05-22T23:41:45.807Z,96904.27
2019-05-22T23:44:15.554Z,96898.09
2019-05-22T23:46:42.211Z,96901.22
2019-05-22T23:49:08.071Z,96903.64
2019-05-22T23:51:34.077Z,96903.77
2019-05-22T23:54:01.157Z,96907.87
2019-05-22T23:56:27.072Z,96907.39
2019-05-22T23:58:54.435Z,96910.73
